Time;durP1;ratioP1;P1;durP2;ratioP2;P2;SDS_P1;SDS_P2;PMS_P1;PMS_P2;Temp;Humidity;BMP_temperature;BMP_pressure;BME280_temperature;BME280_humidity;BME280_pressure;Samples;Min_cycle;Max_cycle;Signal;HPM_P1;HPM_P2
2022/06/28 00:01:55;;;;;;;3.93;2.17;;;;;;;;;;4981284;28;20466;-82
2022/06/28 00:04:20;;;;;;;4.70;2.17;;;16.60;99.90;;;;;;4982501;28;21428;-84
2022/06/28 00:06:47;;;;;;;4.23;1.90;;;;;;;;;;4987384;28;20434;-82
2022/06/28 00:09:14;;;;;;;1.90;1.67;;;16.60;99.90;;;;;;4994235;28;20183;-85
2022/06/28 00:11:43;;;;;;;3.93;3.53;;;16.60;99.90;;;;;;5003819;22;20498;-87
2022/06/28 00:16:55;;;;;;;2.80;2.37;;;16.60;99.90;;;;;;4973368;28;20452;-87
2022/06/28 00:19:21;;;;;;;5.13;1.97;;;;;;;;;;4991410;28;20497;-88
2022/06/28 00:21:48;;;;;;;1.87;1.77;;;16.50;99.90;;;;;;4996595;28;20966;-87
2022/06/28 00:24:14;;;;;;;2.23;1.80;;;;;;;;;;4991555;28;20640;-87
2022/06/28 00:26:41;;;;;;;9.83;2.37;;;;;;;;;;4989645;28;20446;-88
2022/06/28 00:29:07;;;;;;;4.00;3.70;;;;;;;;;;4970094;28;20485;-87
2022/06/28 00:31:33;;;;;;;10.30;2.00;;;;;;;;;;4978010;28;20450;-87
2022/06/28 00:33:59;;;;;;;2.07;1.83;;;;;;;;;;4972409;28;20434;-88
2022/06/28 00:36:25;;;;;;;3.40;2.17;;;;;;;;;;4992988;28;20442;-86
2022/06/28 00:38:51;;;;;;;3.10;1.60;;;;;;;;;;4975803;28;20496;-86
2022/06/28 00:41:17;;;;;;;3.10;2.80;;;;;;;;;;4996160;28;20446;-87
2022/06/28 00:43:43;;;;;;;2.50;2.17;;;;;;;;;;4977932;28;21435;-88
2022/06/28 00:46:09;;;;;;;5.40;2.37;;;;;;;;;;4991942;28;20447;-88
2022/06/28 00:48:35;;;;;;;4.70;2.60;;;;;;;;;;4985799;28;20430;-87
2022/06/28 00:51:02;;;;;;;8.00;2.23;;;;;;;;;;4982022;28;20458;-87
2022/06/28 00:53:27;;;;;;;8.73;2.37;;;;;;;;;;4988806;28;20439;-87
2022/06/28 00:55:53;;;;;;;3.07;2.20;;;;;;;;;;4966282;28;20787;-88
2022/06/28 00:58:19;;;;;;;1.90;1.80;;;;;;;;;;4972958;28;20435;-87
2022/06/28 01:00:49;;;;;;;2.13;1.93;;;16.50;99.90;;;;;;4967973;28;22105;-86
2022/06/28 01:03:20;;;;;;;2.60;2.13;;;16.30;99.90;;;;;;4987901;28;20503;-86
2022/06/28 01:05:47;;;;;;;6.00;2.30;;;16.30;99.90;;;;;;4967428;28;20478;-88
2022/06/28 01:08:13;;;;;;;2.07;1.90;;;;;;;;;;4964950;28;20564;-88
2022/06/28 01:10:39;;;;;;;5.47;2.37;;;;;;;;;;4988952;28;20596;-88
2022/06/28 01:13:06;;;;;;;6.03;3.53;;;16.10;99.90;;;;;;4980105;28;20453;-87
2022/06/28 01:15:32;;;;;;;2.87;2.57;;;;;;;;;;4974231;28;20449;-88
2022/06/28 01:18:03;;;;;;;4.00;2.90;;;16.00;99.90;;;;;;4976346;28;20509;-87
2022/06/28 01:20:29;;;;;;;7.77;2.47;;;;;;;;;;4976478;28;22139;-87
2022/06/28 01:22:55;;;;;;;4.47;3.23;;;;;;;;;;4981432;28;20434;-87
2022/06/28 01:25:22;;;;;;;51.77;36.87;;;15.90;99.90;;;;;;4976544;28;20465;-86
2022/06/28 01:27:48;;;;;;;3.70;3.30;;;;;;;;;;4985075;28;20457;-86
2022/06/28 01:30:15;;;;;;;5.93;3.20;;;;;;;;;;4987270;28;20454;-87
2022/06/28 01:32:41;;;;;;;3.40;3.10;;;;;;;;;;5003439;28;20426;-86
2022/06/28 01:35:07;;;;;;;5.43;3.47;;;15.80;99.90;;;;;;4979685;28;20457;-87
2022/06/28 01:37:34;;;;;;;10.00;3.30;;;;;;;;;;4975581;28;21298;-87
2022/06/28 01:40:00;;;;;;;3.70;3.30;;;;;;;;;;4995470;28;21047;-89
2022/06/28 01:42:27;;;;;;;3.83;3.10;;;15.60;99.90;;;;;;4980310;28;20564;-86
2022/06/28 01:44:54;;;;;;;5.57;3.20;;;;;;;;;;4995830;28;20473;-87
2022/06/28 01:47:20;;;;;;;3.47;2.40;;;15.50;99.90;;;;;;4972774;28;20488;-87
2022/06/28 01:49:46;;;;;;;10.70;3.67;;;15.40;99.90;;;;;;4979693;28;21016;-86
2022/06/28 01:52:12;;;;;;;4.70;3.57;;;15.50;99.90;;;;;;4980804;28;20438;-87
2022/06/28 01:54:38;;;;;;;4.93;2.93;;;;;;;;;;4981223;28;20434;-86
2022/06/28 01:57:03;;;;;;;2.70;2.50;;;15.40;99.90;;;;;;4988205;28;20885;-88
2022/06/28 01:59:29;;;;;;;6.23;3.17;;;;;;;;;;4981561;28;20492;-85
2022/06/28 02:01:55;;;;;;;4.33;3.47;;;;;;;;;;4975894;28;20442;-88
2022/06/28 02:04:23;;;;;;;4.40;2.37;;;15.20;99.90;;;;;;4997093;28;20513;-87
2022/06/28 02:06:49;;;;;;;2.90;1.20;;;;;;;;;;4977922;28;20433;-87
2022/06/28 02:09:16;;;;;;;3.73;1.90;;;;;;;;;;4987970;28;20565;-88
2022/06/28 02:11:42;;;;;;;5.03;1.20;;;15.10;99.90;;;;;;4981886;28;20533;-87
2022/06/28 02:14:08;;;;;;;2.43;1.77;;;14.90;99.90;;;;;;4992576;28;22258;-87
2022/06/28 02:16:34;;;;;;;2.23;1.37;;;;;;;;;;4984718;28;20521;-86
2022/06/28 02:19:00;;;;;;;3.20;1.73;;;;;;;;;;4981912;28;21049;-86
2022/06/28 02:21:26;;;;;;;5.23;1.50;;;;;;;;;;4978238;28;20498;-87
2022/06/28 02:23:52;;;;;;;3.20;2.50;;;;;;;;;;4988953;28;20480;-86
2022/06/28 02:26:18;;;;;;;4.77;2.20;;;;;;;;;;4997946;28;20462;-88
2022/06/28 02:28:44;;;;;;;4.73;1.90;;;;;;;;;;5005841;28;20461;-86
2022/06/28 02:31:14;;;;;;;5.27;2.27;;;14.60;99.90;;;;;;4976324;28;20540;-85
2022/06/28 02:33:41;;;;;;;1.87;1.43;;;14.60;99.90;;;;;;4974888;28;20429;-87
2022/06/28 02:41:37;;;;;;;5.63;2.20;;;;;;;;;;4978322;28;20440;-88
2022/06/28 02:44:03;;;;;;;159.17;141.27;;;;;;;;;;4980342;28;20557;-87
2022/06/28 02:46:29;;;;;;;3.50;2.30;;;;;;;;;;4979740;28;22211;-86
2022/06/28 02:48:55;;;;;;;2.43;1.20;;;;;;;;;;4988032;28;20438;-87
2022/06/28 02:51:21;;;;;;;3.90;1.60;;;;;;;;;;5003202;28;20841;-86
2022/06/28 02:53:47;;;;;;;1.47;1.17;;;14.70;99.90;;;;;;4988273;28;20426;-86
2022/06/28 02:56:13;;;;;;;2.80;1.30;;;;;;;;;;4984967;28;21013;-86
2022/06/28 02:58:39;;;;;;;3.13;2.03;;;;;;;;;;4977808;28;20426;-86
2022/06/28 03:01:05;;;;;;;4.47;3.00;;;;;;;;;;4979816;28;20473;-87
2022/06/28 03:03:31;;;;;;;4.40;2.80;;;;;;;;;;4977510;28;20433;-87
2022/06/28 03:05:57;;;;;;;2.90;1.80;;;;;;;;;;4980581;28;20812;-89
2022/06/28 03:08:23;;;;;;;3.70;1.57;;;;;;;;;;4981888;28;20449;-87
2022/06/28 03:10:49;;;;;;;2.83;2.17;;;;;;;;;;4986373;28;20969;-87
2022/06/28 03:13:15;;;;;;;3.60;2.50;;;;;;;;;;4984123;28;20437;-87
2022/06/28 03:15:41;;;;;;;4.00;2.60;;;;;;;;;;4984180;28;20532;-87
2022/06/28 03:18:07;;;;;;;7.83;1.87;;;;;;;;;;4987441;28;21468;-86
2022/06/28 03:20:33;;;;;;;2.07;1.50;;;;;;;;;;4980336;28;20484;-87
2022/06/28 03:22:59;;;;;;;6.60;3.33;;;;;;;;;;4990753;28;20549;-86
2022/06/28 03:25:25;;;;;;;4.47;2.33;;;;;;;;;;4995337;28;20462;-86
2022/06/28 03:27:51;;;;;;;3.60;2.10;;;;;;;;;;4977500;28;20442;-85
2022/06/28 03:30:17;;;;;;;3.77;2.33;;;;;;;;;;4974853;28;20446;-87
2022/06/28 03:32:43;;;;;;;2.83;2.00;;;;;;;;;;4980381;28;20438;-88
2022/06/28 03:35:09;;;;;;;3.23;2.50;;;;;;;;;;4976507;28;20536;-88
2022/06/28 03:37:36;;;;;;;3.13;2.27;;;14.40;99.90;;;;;;4979304;28;20478;-88
2022/06/28 03:40:02;;;;;;;3.73;3.23;;;;;;;;;;4987434;28;20454;-85
2022/06/28 03:42:27;;;;;;;4.40;2.73;;;14.50;99.90;;;;;;4994819;28;21406;-88
2022/06/28 03:44:53;;;;;;;6.20;2.97;;;;;;;;;;4976610;28;20612;-85
2022/06/28 03:47:19;;;;;;;3.10;2.43;;;;;;;;;;4979749;28;20644;-87
2022/06/28 03:49:47;;;;;;;4.40;2.10;;;;;;;;;;4995114;28;20509;-88
2022/06/28 03:52:13;;;;;;;3.07;1.87;;;;;;;;;;4993690;28;20576;-88
2022/06/28 03:54:39;;;;;;;4.60;2.70;;;;;;;;;;4979540;28;20438;-86
2022/06/28 03:57:05;;;;;;;9.73;3.00;;;;;;;;;;4990229;28;20430;-87
2022/06/28 03:59:31;;;;;;;3.33;2.33;;;;;;;;;;5001224;28;20473;-86
2022/06/28 04:01:57;;;;;;;2.60;1.93;;;;;;;;;;4986466;28;20449;-87
2022/06/28 04:04:23;;;;;;;5.10;2.93;;;;;;;;;;4969686;28;20465;-86
2022/06/28 04:06:49;;;;;;;5.70;2.50;;;;;;;;;;4974488;28;20444;-86
2022/06/28 04:09:16;;;;;;;3.70;2.40;;;;;;;;;;4985194;28;20462;-86
2022/06/28 04:11:42;;;;;;;2.70;2.20;;;;;;;;;;5005075;28;20452;-85
2022/06/28 04:14:13;;;;;;;4.43;2.23;;;;;;;;;;4998045;28;20434;-86
2022/06/28 04:16:39;;;;;;;5.10;3.20;;;;;;;;;;4984014;28;20426;-86
2022/06/28 04:19:06;;;;;;;4.67;3.63;;;;;;;;;;5001526;28;20493;-88
2022/06/28 04:21:32;;;;;;;7.07;2.97;;;19.70;99.90;;;;;;4983564;28;20486;-86
2022/06/28 04:23:58;;;;;;;2.50;2.27;;;;;;;;;;4988309;28;20510;-87
2022/06/28 04:26:24;;;;;;;2.93;1.73;;;;;;;;;;4996707;28;20594;-88
2022/06/28 04:28:50;;;;;;;4.27;2.40;;;;;;;;;;4982224;28;20581;-88
2022/06/28 04:31:16;;;;;;;12.20;2.30;;;;;;;;;;4995229;28;20469;-89
2022/06/28 04:33:42;;;;;;;2.63;2.00;;;;;;;;;;4986486;28;20470;-87
2022/06/28 04:36:08;;;;;;;3.07;1.90;;;;;;;;;;4985491;28;20448;-88
2022/06/28 04:38:34;;;;;;;84.70;6.93;;;;;;;;;;4987315;28;20479;-86
2022/06/28 04:41:00;;;;;;;5.47;2.40;;;;;;;;;;4973491;28;20541;-86
2022/06/28 04:43:26;;;;;;;2.93;2.00;;;;;;;;;;4995576;28;20541;-89
2022/06/28 04:45:53;;;;;;;3.63;2.20;;;;;;;;;;4978065;28;20491;-88
2022/06/28 04:48:19;;;;;;;2.30;2.10;;;;;;;;;;4994524;28;20443;-88
2022/06/28 04:50:45;;;;;;;4.00;2.00;;;;;;;;;;4983597;28;20460;-88
2022/06/28 04:53:11;;;;;;;3.63;2.57;;;;;;;;;;5018275;22;20626;-89
2022/06/28 04:55:37;;;;;;;4.13;3.10;;;;;;;;;;4988057;28;20442;-91
2022/06/28 04:58:03;;;;;;;3.87;3.67;;;;;;;;;;4993436;28;20456;-90
2022/06/28 05:00:29;;;;;;;5.40;4.97;;;;;;;;;;4991761;28;20473;-89
2022/06/28 05:02:55;;;;;;;21.23;7.07;;;;;;;;;;4990917;28;20455;-90
2022/06/28 05:05:22;;;;;;;45.17;18.97;;;;;;;;;;4997320;28;20496;-89
2022/06/28 05:07:48;;;;;;;9.17;8.60;;;;;;;;;;4993269;28;20421;-90
2022/06/28 05:10:14;;;;;;;9.70;9.20;;;;;;;;;;5011227;28;20468;-90
2022/06/28 05:12:40;;;;;;;10.73;9.93;;;;;;;;;;5005467;28;20445;-90
2022/06/28 05:15:06;;;;;;;10.23;8.97;;;;;;;;;;4995563;28;20464;-89
2022/06/28 05:17:34;;;;;;;10.60;9.90;;;39.00;82.10;;;;;;4992265;28;20440;-89
2022/06/28 05:20:02;;;;;;;10.67;10.10;;;;;;;;;;5011698;28;20443;-89
2022/06/28 05:22:28;;;;;;;11.30;10.50;;;;;;;;;;5026637;28;20492;-89
2022/06/28 05:24:54;;;;;;;10.30;9.63;;;;;;;;;;5014652;28;20499;-89
2022/06/28 05:27:21;;;;;;;10.77;10.07;;;;;;;;;;4994604;28;20751;-89
2022/06/28 05:29:47;;;;;;;11.80;11.20;;;40.40;49.10;;;;;;4998339;28;20444;-90
2022/06/28 05:32:14;;;;;;;21.13;15.83;;;40.40;47.60;;;;;;4995119;28;20440;-90
2022/06/28 05:34:40;;;;;;;14.27;13.00;;;;;;;;;;4996975;28;20472;-89
2022/06/28 05:37:07;;;;;;;16.73;15.20;;;;;;;;;;4997604;28;21320;-89
2022/06/28 05:39:33;;;;;;;13.20;12.40;;;;;;;;;;4985325;28;20551;-89
2022/06/28 05:41:59;;;;;;;14.43;13.10;;;;;;;;;;4987405;28;21025;-89
2022/06/28 05:44:25;;;;;;;18.77;15.60;;;;;;;;;;5003976;28;20492;-90
2022/06/28 05:46:51;;;;;;;14.23;13.43;;;;;;;;;;4998243;28;20451;-91
2022/06/28 05:49:18;;;;;;;14.90;13.87;;;;;;;;;;5002025;28;20432;-89
2022/06/28 05:51:44;;;;;;;15.57;14.43;;;;;;;;;;4996696;28;20440;-91
2022/06/28 05:54:10;;;;;;;14.30;13.37;;;;;;;;;;4994409;28;20461;-90
2022/06/28 05:56:36;;;;;;;16.33;13.00;;;;;;;;;;4996063;28;20848;-91
2022/06/28 05:59:04;;;;;;;13.17;12.47;;;;;;;;;;5001106;28;20460;-92
2022/06/28 06:01:30;;;;;;;13.40;12.70;;;;;;;;;;5002328;28;20451;-91
2022/06/28 06:03:57;;;;;;;13.57;12.87;;;42.30;41.80;;;;;;4995050;28;20473;-91
2022/06/28 06:06:24;;;;;;;16.13;15.03;;;;;;;;;;4998194;28;20509;-91
2022/06/28 06:08:51;;;;;;;14.43;13.83;;;;;;;;;;5000609;28;20418;-91
2022/06/28 06:11:17;;;;;;;15.77;14.60;;;;;;;;;;4997928;28;20441;-91
2022/06/28 06:13:43;;;;;;;15.67;14.73;;;;;;;;;;4996288;28;20450;-91
2022/06/28 06:16:09;;;;;;;15.90;15.13;;;;;;;;;;4999448;28;20433;-91
2022/06/28 06:18:37;;;;;;;17.77;16.97;;;42.50;37.40;;;;;;5005486;28;21217;-91
2022/06/28 06:21:03;;;;;;;17.73;16.83;;;;;;;;;;5003345;28;20438;-91
2022/06/28 06:23:29;;;;;;;17.70;16.30;;;;;;;;;;4998971;28;20948;-90
2022/06/28 06:25:55;;;;;;;16.70;15.60;;;;;;;;;;4997971;28;20469;-91
2022/06/28 06:28:21;;;;;;;17.73;16.80;;;;;;;;;;5005679;28;20448;-92
2022/06/28 06:30:47;;;;;;;18.33;17.40;;;;;;;;;;5006718;28;20439;-91
2022/06/28 06:33:13;;;;;;;16.90;15.90;;;;;;;;;;5000854;28;20445;-91
2022/06/28 06:35:39;;;;;;;15.67;14.90;;;;;;;;;;5007543;28;20438;-90
2022/06/28 06:38:07;;;;;;;17.17;16.40;;;40.00;45.50;;;;;;5012194;28;20422;-90
2022/06/28 06:40:33;;;;;;;18.43;17.43;;;;;;;;;;5016318;28;20446;-91
2022/06/28 06:42:59;;;;;;;15.20;14.20;;;;;;;;;;4999912;28;20455;-90
2022/06/28 06:45:25;;;;;;;14.13;13.43;;;;;;;;;;5000228;28;20523;-91
2022/06/28 06:47:52;;;;;;;14.33;13.37;;;;;;;;;;5006504;28;20433;-90
2022/06/28 06:50:17;;;;;;;14.00;13.40;;;;;;;;;;5003503;28;20545;-90
2022/06/28 06:52:43;;;;;;;14.50;13.60;;;;;;;;;;5009471;28;20470;-90
2022/06/28 06:55:10;;;;;;;13.03;12.30;;;;;;;;;;5001410;28;20487;-91
2022/06/28 06:57:36;;;;;;;12.83;12.03;;;;;;;;;;4996391;28;20444;-91
2022/06/28 07:00:04;;;;;;;12.10;11.60;;;37.70;41.90;;;;;;5007500;28;20459;-90
2022/06/28 07:02:30;;;;;;;12.43;11.77;;;;;;;;;;5009607;28;20463;-90
2022/06/28 07:04:56;;;;;;;14.20;13.10;;;;;;;;;;5002338;28;21236;-91
2022/06/28 07:07:22;;;;;;;12.87;12.17;;;;;;;;;;5002286;28;20489;-90
2022/06/28 07:09:48;;;;;;;13.30;12.37;;;;;;;;;;5005330;28;20446;-90
2022/06/28 07:12:14;;;;;;;12.97;12.37;;;;;;;;;;5006354;28;20424;-90
2022/06/28 07:14:40;;;;;;;11.57;11.07;;;;;;;;;;5009791;28;20485;-90
2022/06/28 07:17:07;;;;;;;11.53;11.03;;;;;;;;;;5004672;28;20449;-90
2022/06/28 07:19:34;;;;;;;10.83;10.23;;;33.50;46.20;;;;;;5006944;28;20431;-88
2022/06/28 07:22:01;;;;;;;10.20;9.70;;;;;;;;;;5026721;28;20467;-88
2022/06/28 07:24:27;;;;;;;9.70;9.30;;;;;;;;;;5013874;28;20945;-88
2022/06/28 07:26:54;;;;;;;8.90;8.50;;;32.00;48.00;;;;;;5003456;28;20496;-89
2022/06/28 07:29:20;;;;;;;9.50;8.70;;;;;;;;;;5007646;28;20434;-88
2022/06/28 07:31:46;;;;;;;8.80;8.20;;;;;;;;;;4998763;28;20421;-88
2022/06/28 07:34:12;;;;;;;8.27;7.47;;;;;;;;;;5019586;28;20524;-91
2022/06/28 07:36:38;;;;;;;7.40;7.00;;;;;;;;;;5011778;28;20494;-88
2022/06/28 07:39:04;;;;;;;8.23;7.80;;;;;;;;;;5020102;28;20857;-88
2022/06/28 07:41:30;;;;;;;9.00;8.30;;;;;;;;;;5001311;28;20440;-88
2022/06/28 07:43:56;;;;;;;8.97;8.50;;;;;;;;;;5013701;28;20998;-90
2022/06/28 07:46:23;;;;;;;9.23;8.70;;;35.10;56.20;;;;;;4995640;28;20426;-89
2022/06/28 07:48:50;;;;;;;10.20;9.60;;;;;;;;;;5005491;28;20526;-89
2022/06/28 07:54:01;;;;;;;9.90;9.10;;;;;;;;;;4998220;28;20481;-88
2022/06/28 07:56:27;;;;;;;9.97;9.17;;;;;;;;;;4999828;28;20444;-88
2022/06/28 07:58:53;;;;;;;8.50;8.10;;;;;;;;;;5009188;28;20501;-88
2022/06/28 08:01:19;;;;;;;9.23;8.70;;;;;;;;;;5013906;28;20519;-88
2022/06/28 08:03:46;;;;;;;8.93;8.43;;;;;;;;;;5006879;28;20460;-88
2022/06/28 08:06:12;;;;;;;9.40;8.90;;;;;;;;;;5017577;28;20425;-88
2022/06/28 08:08:38;;;;;;;9.20;8.70;;;;;;;;;;5025318;28;20447;-90
2022/06/28 08:11:03;;;;;;;9.87;9.30;;;;;;;;;;5012257;28;20428;-89
2022/06/28 08:13:29;;;;;;;9.70;9.10;;;;;;;;;;5000434;28;20463;-89
2022/06/28 08:15:56;;;;;;;10.40;9.90;;;;;;;;;;5000356;28;20437;-88
2022/06/28 08:18:22;;;;;;;11.30;10.60;;;;;;;;;;5009481;28;21120;-90
2022/06/28 08:20:48;;;;;;;11.20;10.70;;;;;;;;;;4996779;28;20446;-90
2022/06/28 08:23:14;;;;;;;12.23;11.73;;;37.80;39.60;;;;;;4997437;28;20476;-89
2022/06/28 08:25:42;;;;;;;11.50;11.00;;;;;;;;;;4999245;28;20465;-89
2022/06/28 08:28:09;;;;;;;12.27;11.30;;;;;;;;;;4997039;28;20918;-90
2022/06/28 08:30:34;;;;;;;11.83;11.23;;;;;;;;;;4995330;28;20527;-89
2022/06/28 08:33:01;;;;;;;11.70;11.00;;;;;;;;;;4998935;28;20566;-90
2022/06/28 08:35:27;;;;;;;13.10;12.37;;;;;;;;;;5008249;28;20447;-90
2022/06/28 08:37:53;;;;;;;12.47;11.97;;;;;;;;;;4998983;28;20468;-90
2022/06/28 08:40:21;;;;;;;11.67;11.17;;;36.50;40.50;;;;;;5014975;28;20446;-90
2022/06/28 08:42:54;;;;;;;11.97;11.47;;;35.50;40.10;;;;;;5018405;28;20434;-90
2022/06/28 08:45:20;;;;;;;12.00;11.40;;;;;;;;;;5002649;28;20663;-89
2022/06/28 08:47:47;;;;;;;11.43;10.93;;;;;;;;;;5004541;28;20475;-90
2022/06/28 08:50:40;;;;;;;11.60;11.13;;;34.70;60.20;;;;;;4995859;28;20484;-90
2022/06/28 08:53:09;;;;;;;11.50;11.00;;;35.30;40.90;;;;;;5004766;28;20473;-90
2022/06/28 08:55:36;;;;;;;12.53;11.83;;;35.70;40.60;;;;;;4999587;28;20446;-91
2022/06/28 08:58:06;;;;;;;11.90;11.37;;;35.50;39.60;;;;;;5004966;28;20446;-90
2022/06/28 09:00:32;;;;;;;11.90;11.30;;;;;;;;;;5015220;28;20445;-90
2022/06/28 09:02:58;;;;;;;11.67;11.17;;;;;;;;;;4995929;28;20465;-89
2022/06/28 09:05:27;;;;;;;12.30;11.70;;;35.60;39.80;;;;;;5005042;28;21080;-91
2022/06/28 09:07:56;;;;;;;12.60;11.80;;;35.20;40.00;;;;;;5000020;28;20441;-90
2022/06/28 09:10:22;;;;;;;12.57;11.77;;;;;;;;;;5007868;28;20436;-89
2022/06/28 09:12:55;;;;;;;11.97;11.40;;;33.20;40.40;;;;;;4998979;28;20473;-89
2022/06/28 09:15:24;;;;;;;10.90;10.40;;;32.70;40.30;;;;;;5000495;28;20429;-90
2022/06/28 09:17:54;;;;;;;11.30;10.80;;;32.90;39.10;;;;;;5009919;28;20449;-90
2022/06/28 09:20:21;;;;;;;11.20;10.33;;;;;;;;;;5002599;28;20523;-91
2022/06/28 09:22:47;;;;;;;10.20;9.80;;;;;;;;;;5001500;28;20431;-91
2022/06/28 09:25:28;;;;;;;9.70;9.30;;;34.30;42.40;;;;;;4992837;28;20569;-89
2022/06/28 09:27:57;;;;;;;10.53;10.13;;;34.40;39.50;;;;;;4996107;28;20466;-90
2022/06/28 09:30:25;;;;;;;10.93;10.43;;;34.30;38.90;;;;;;5001153;28;20438;-89
2022/06/28 09:32:51;;;;;;;10.40;9.63;;;;;;;;;;5000462;28;20736;-89
2022/06/28 09:35:17;;;;;;;10.90;10.27;;;;;;;;;;5006219;28;20449;-90
2022/06/28 09:37:47;;;;;;;12.60;11.40;;;36.20;37.80;;;;;;5014460;28;20477;-89
2022/06/28 09:40:18;;;;;;;11.77;11.10;;;37.10;37.80;;;;;;5000471;28;20445;-89
2022/06/28 09:42:46;;;;;;;13.00;12.40;;;36.70;35.80;;;;;;5006985;28;20447;-90
2022/06/28 09:45:16;;;;;;;12.10;11.20;;;36.30;36.30;;;;;;4997146;28;21432;-90
2022/06/28 09:47:47;;;;;;;11.57;11.07;;;35.90;37.50;;;;;;5006602;28;20442;-91
2022/06/28 09:50:18;;;;;;;11.97;11.47;;;36.80;36.40;;;;;;5001917;28;20453;-90
2022/06/28 09:52:45;;;;;;;11.60;11.10;;;;;;;;;;4999156;28;20573;-90
2022/06/28 09:55:14;;;;;;;15.83;14.73;;;38.80;35.30;;;;;;4999672;28;20444;-90
2022/06/28 09:57:44;;;;;;;12.93;12.40;;;37.70;33.40;;;;;;5000589;28;20452;-89
2022/06/28 10:00:10;;;;;;;14.43;13.53;;;37.70;36.00;;;;;;4995412;28;20437;-91
2022/06/28 10:02:36;;;;;;;13.73;12.97;;;;;;;;;;5008656;28;20826;-90
2022/06/28 10:05:02;;;;;;;13.40;12.90;;;;;;;;;;4992202;28;20469;-89
2022/06/28 10:07:30;;;;;;;14.33;13.83;;;38.80;34.30;;;;;;4995247;28;20606;-90
2022/06/28 10:09:56;;;;;;;14.37;13.67;;;;;;;;;;5002562;28;20476;-90
2022/06/28 10:15:08;;;;;;;14.67;14.07;;;38.00;34.00;;;;;;5003033;28;20190;-90
2022/06/28 10:18:04;;;;;;;14.50;13.87;;;37.60;33.40;;;;;;4998527;28;20932;-90
2022/06/28 10:20:36;;;;;;;14.77;13.97;;;36.00;59.20;;;;;;5010482;28;20497;-90
2022/06/28 10:23:33;;;;;;;14.40;13.70;;;36.20;35.90;;;;;;4997040;28;20518;-90
2022/06/28 10:26:19;;;;;;;14.50;13.70;;;35.10;37.20;;;;;;4999090;28;20464;-89
2022/06/28 10:29:02;;;;;;;15.13;14.10;;;35.60;47.70;;;;;;5004440;28;20858;-89
2022/06/28 10:31:30;;;;;;;13.73;12.80;;;;;;;;;;5005067;28;20441;-90
2022/06/28 10:33:58;;;;;;;14.00;13.30;;;35.60;39.10;;;;;;5005365;28;20446;-90
2022/06/28 10:36:26;;;;;;;13.20;12.60;;;35.70;38.10;;;;;;5003340;28;20514;-90
2022/06/28 10:39:01;;;;;;;12.70;12.00;;;35.70;48.10;;;;;;4999360;28;20436;-90
2022/06/28 10:41:48;;;;;;;12.40;11.80;;;34.30;39.30;;;;;;5003191;28;20874;-90
2022/06/28 10:44:17;;;;;;;9.90;9.30;;;32.20;41.10;;;;;;4997709;28;20892;-89
2022/06/28 10:46:49;;;;;;;10.50;10.10;;;30.70;44.30;;;;;;5006187;28;20936;-89
2022/06/28 10:49:15;;;;;;;9.20;8.80;;;;;;;;;;5000973;28;20422;-89
2022/06/28 10:52:01;;;;;;;8.53;7.90;;;27.60;48.00;;;;;;5001084;28;20524;-89
2022/06/28 10:56:56;;;;;;;6.23;5.90;;;;;;;;;;4988003;28;20495;-87
2022/06/28 10:59:34;;;;;;;6.33;5.93;;;27.40;51.70;;;;;;4996867;28;20443;-87
2022/06/28 11:02:00;;;;;;;6.00;5.50;;;;;;;;;;4990355;28;20503;-87
2022/06/28 11:04:28;;;;;;;8.67;5.03;;;26.90;52.60;;;;;;4979697;28;21007;-88
2022/06/28 11:07:06;;;;;;;4.60;4.40;;;26.90;53.80;;;;;;4980748;28;20433;-91
2022/06/28 11:09:44;;;;;;;4.47;4.10;;;27.10;55.10;;;;;;4986326;28;20420;-88
2022/06/28 11:12:19;;;;;;;4.40;4.20;;;27.10;52.90;;;;;;4993396;28;20440;-89
2022/06/28 11:14:59;;;;;;;4.93;4.70;;;27.20;52.70;;;;;;4993844;28;20490;-87
2022/06/28 11:17:32;;;;;;;5.10;4.90;;;27.40;56.70;;;;;;4997009;28;20444;-88
2022/06/28 11:20:09;;;;;;;4.83;4.47;;;27.10;52.20;;;;;;4972116;28;20451;-87
2022/06/28 11:22:40;;;;;;;4.70;4.40;;;27.10;52.90;;;;;;4978953;28;20437;-86
2022/06/28 11:25:08;;;;;;;5.20;4.80;;;26.90;51.00;;;;;;4978407;28;20866;-89
2022/06/28 11:27:35;;;;;;;4.50;4.10;;;;;;;;;;4996865;28;20438;-88
2022/06/28 11:30:01;;;;;;;4.67;4.27;;;;;;;;;;4992874;28;20464;-88
2022/06/28 11:32:32;;;;;;;4.27;3.87;;;27.10;52.90;;;;;;4982619;28;20474;-89
2022/06/28 11:35:23;;;;;;;4.60;4.30;;;27.00;53.50;;;;;;4973033;28;20469;-86
2022/06/28 11:37:53;;;;;;;4.63;4.23;;;27.00;57.40;;;;;;4978358;28;20441;-89
2022/06/28 11:40:39;;;;;;;4.20;3.80;;;27.80;55.60;;;;;;4976272;28;20447;-88
2022/06/28 11:43:05;;;;;;;3.80;3.50;;;;;;;;;;5006680;28;20453;-88
2022/06/28 11:45:35;;;;;;;4.23;3.93;;;28.40;52.40;;;;;;4984672;28;20474;-89
2022/06/28 11:48:11;;;;;;;4.63;4.20;;;28.50;52.50;;;;;;4991540;28;21187;-88
2022/06/28 11:50:49;;;;;;;4.50;4.20;;;28.60;52.10;;;;;;4973630;28;21144;-90
2022/06/28 11:53:16;;;;;;;4.60;4.33;;;28.20;51.00;;;;;;4984166;28;20437;-89
2022/06/28 11:55:45;;;;;;;4.60;4.30;;;27.70;52.90;;;;;;4981494;28;20489;-88
2022/06/28 11:58:20;;;;;;;4.77;4.27;;;27.80;53.10;;;;;;5012646;28;20835;-88
2022/06/28 12:01:14;;;;;;;4.90;4.50;;;27.70;57.30;;;;;;5004872;28;21438;-87
2022/06/28 12:03:42;;;;;;;4.67;4.37;;;28.40;53.10;;;;;;4981467;28;20939;-88
2022/06/28 12:06:17;;;;;;;5.20;4.70;;;28.70;54.00;;;;;;4973859;28;20553;-89
2022/06/28 12:08:47;;;;;;;4.50;4.13;;;28.60;52.10;;;;;;4990679;28;20894;-90
2022/06/28 12:11:45;;;;;;;4.33;4.13;;;28.20;50.90;;;;;;4979056;28;20870;-90
2022/06/28 12:14:15;;;;;;;4.40;3.90;;;28.10;53.00;;;;;;4975569;28;20446;-88
2022/06/28 12:16:42;;;;;;;3.87;3.60;;;28.10;52.30;;;;;;4997486;28;20439;-91
2022/06/28 12:19:13;;;;;;;4.13;3.93;;;28.20;52.40;;;;;;4988968;28;20451;-88
2022/06/28 12:21:58;;;;;;;5.13;4.23;;;28.50;51.60;;;;;;4975087;28;20444;-88
2022/06/28 12:24:43;;;;;;;4.70;4.50;;;28.40;49.20;;;;;;4976089;28;21131;-87
2022/06/28 12:27:09;;;;;;;4.77;4.27;;;28.20;52.00;;;;;;4989969;28;20495;-87
2022/06/28 12:29:35;;;;;;;4.80;4.47;;;;;;;;;;4978528;28;20484;-88
2022/06/28 12:32:01;;;;;;;4.47;4.27;;;;;;;;;;4988385;28;21310;-88
2022/06/28 12:34:27;;;;;;;4.07;3.87;;;;;;;;;;4992471;28;20516;-88
2022/06/28 12:36:53;;;;;;;4.87;4.60;;;;;;;;;;4974227;28;20506;-86
2022/06/28 12:39:19;;;;;;;4.83;4.40;;;;;;;;;;4972299;28;20454;-86
2022/06/28 12:41:48;;;;;;;4.27;4.00;;;;;;;;;;4984189;28;20431;-87
2022/06/28 12:44:14;;;;;;;3.23;3.03;;;;;;;;;;4991462;28;20899;-88
2022/06/28 12:46:40;;;;;;;4.43;4.23;;;;;;;;;;4982622;28;20439;-90
2022/06/28 12:49:06;;;;;;;3.87;3.67;;;;;;;;;;4973612;28;20551;-89
2022/06/28 12:51:32;;;;;;;4.70;4.30;;;;;;;;;;4983188;28;20431;-88
2022/06/28 12:53:58;;;;;;;4.70;3.47;;;;;;;;;;4981674;28;20470;-88
2022/06/28 12:56:24;;;;;;;4.23;3.93;;;;;;;;;;4989527;28;21046;-88
2022/06/28 12:58:50;;;;;;;4.50;4.10;;;;;;;;;;4993192;28;21082;-89
2022/06/28 13:01:16;;;;;;;3.90;3.70;;;;;;;;;;4984830;28;20773;-88
2022/06/28 13:03:42;;;;;;;4.20;3.90;;;;;;;;;;4987211;28;20438;-87
2022/06/28 13:06:09;;;;;;;4.33;4.13;;;27.90;55.70;;;;;;4985444;28;20552;-87
2022/06/28 13:08:35;;;;;;;4.43;4.23;;;;;;;;;;4977485;28;20438;-88
2022/06/28 13:11:04;;;;;;;4.80;4.50;;;27.80;54.50;;;;;;4988180;28;20430;-88
2022/06/28 13:13:30;;;;;;;4.73;4.33;;;;;;;;;;4990510;28;20873;-87
2022/06/28 13:15:56;;;;;;;4.80;3.90;;;;;;;;;;4990704;28;20565;-88
2022/06/28 13:18:23;;;;;;;3.90;3.70;;;27.90;53.90;;;;;;4990481;28;20445;-88
2022/06/28 13:20:49;;;;;;;3.80;3.50;;;;;;;;;;4978005;28;20555;-89
2022/06/28 13:23:15;;;;;;;4.00;3.70;;;;;;;;;;4975747;28;20443;-91
2022/06/28 13:25:41;;;;;;;3.93;3.73;;;;;;;;;;4974283;28;20579;-89
2022/06/28 13:28:08;;;;;;;4.00;3.80;;;;;;;;;;4988660;28;20445;-91
2022/06/28 13:30:36;;;;;;;4.80;4.40;;;;;;;;;;4991302;28;21719;-88
2022/06/28 13:33:03;;;;;;;4.40;4.17;;;;;;;;;;4991707;28;20426;-88
2022/06/28 13:35:29;;;;;;;4.37;4.07;;;;;;;;;;4993900;28;20475;-88
2022/06/28 13:37:54;;;;;;;4.43;4.13;;;;;;;;;;4996213;28;20431;-88
2022/06/28 13:40:21;;;;;;;4.33;4.07;;;;;;;;;;4999892;28;21286;-90
2022/06/28 13:42:47;;;;;;;3.77;3.57;;;;;;;;;;4978156;28;21264;-89
2022/06/28 13:45:14;;;;;;;3.97;3.77;;;;;;;;;;4992522;28;20479;-90
2022/06/28 13:47:40;;;;;;;4.03;3.73;;;;;;;;;;4994764;28;20441;-88
2022/06/28 13:50:07;;;;;;;3.67;3.37;;;;;;;;;;4989598;28;20495;-89
2022/06/28 13:52:33;;;;;;;3.53;3.33;;;;;;;;;;4984224;28;20424;-89
2022/06/28 13:54:58;;;;;;;3.53;3.33;;;;;;;;;;4973331;28;20470;-87
2022/06/28 13:57:25;;;;;;;3.73;3.53;;;;;;;;;;4976295;28;21242;-88
2022/06/28 13:59:51;;;;;;;3.90;3.70;;;;;;;;;;4969649;28;20473;-88
2022/06/28 14:02:18;;;;;;;3.87;3.57;;;;;;;;;;4987529;28;20451;-87
2022/06/28 14:04:43;;;;;;;3.70;3.40;;;;;;;;;;4984531;28;20493;-88
2022/06/28 14:07:09;;;;;;;3.60;3.27;;;;;;;;;;4980151;28;21091;-88
2022/06/28 14:09:35;;;;;;;4.10;3.80;;;;;;;;;;4977368;28;20471;-89
2022/06/28 14:12:01;;;;;;;4.13;3.73;;;;;;;;;;4979721;28;20453;-86
2022/06/28 14:14:27;;;;;;;5.60;3.30;;;;;;;;;;4990799;28;20881;-90